Aviation Digital Data Service (ADDS)

Output produced by METARs form (0549 UTC 19 March 2019)
found at http://www.aviationweather.gov/metar/data/
 
Forecast for: VTST (TRANG , TH)
Text: TAF VTST 190500Z 1906/2006 06008KT 9999 FEW020
Forecast period: 0600 to 1800 UTC 19 March 2019
Forecast type: FROM: standard forecast or significant change
Winds: from the ENE (60 degrees) at 9 MPH (8 knots; 4.1 m/s)
Visibility: 6 or more miles 10+ km)
Ceiling: at least 12,000 feet AGL
Clouds: few clouds at 2000 feet AGL
Weather: no significant weather forecast for this period
Text: BECMG 1918/1920 03003KT 9000
Forecast period: 1800 UTC 19 March 2019 to 0400 UTC 20 March 2019
Forecast type: BECOMING: Conditions expected to become as follows by 2000 UTC 19 March 2019
Winds: from the NNE (30 degrees) at 3 MPH (3 knots; 1.5 m/s)
Visibility: 6 miles (9 km)
Ceiling: at least 12,000 feet AGL
Clouds: few clouds at 2000 feet AGL
Weather: no significant weather forecast for this period
Text: BECMG 2004/2006 06009KT 9999
Forecast period: 0400 to 0600 UTC 20 March 2019
Forecast type: BECOMING: Conditions expected to become as follows by 0600 UTC 20 March 2019
Winds: from the ENE (60 degrees) at 10 MPH (9 knots; 4.6 m/s)
Visibility: 6 or more miles 10+ km)
Ceiling: at least 12,000 feet AGL
Clouds: few clouds at 2000 feet AGL
Weather: no significant weather forecast for this period